createdAt,value
2022-10-21T00:00:25.193Z,18.29
2022-10-21T00:01:26.736Z,18.32
2022-10-21T00:02:28.207Z,18.37
2022-10-21T00:03:29.721Z,18.37
2022-10-21T00:04:31.846Z,18.38
2022-10-21T00:05:33.288Z,18.37
2022-10-21T00:06:34.939Z,18.33
2022-10-21T00:07:36.383Z,18.33
2022-10-21T00:08:38.138Z,18.29
2022-10-21T00:09:39.679Z,18.21
2022-10-21T00:10:41.133Z,18.26
2022-10-21T00:11:42.615Z,18.27
2022-10-21T00:12:44.081Z,18.26
2022-10-21T00:13:45.615Z,18.24
2022-10-21T00:14:47.094Z,18.22
2022-10-21T00:16:04.928Z,18.23
2022-10-21T00:17:06.383Z,18.15
2022-10-21T00:18:07.869Z,18.13
2022-10-21T00:19:09.705Z,18.13
2022-10-21T00:20:12.017Z,18.06
2022-10-21T00:21:14.745Z,17.96
2022-10-21T00:22:16.235Z,17.91
2022-10-21T00:23:17.710Z,17.82
2022-10-21T00:24:19.156Z,17.83
2022-10-21T00:25:20.715Z,17.82
2022-10-21T00:26:22.192Z,17.76
2022-10-21T00:27:23.708Z,17.76
2022-10-21T00:28:25.290Z,17.60
2022-10-21T00:29:26.719Z,17.73
2022-10-21T00:30:28.245Z,17.67
2022-10-21T00:31:30.595Z,17.70
2022-10-21T00:32:32.095Z,17.69
2022-10-21T00:33:33.571Z,17.65
2022-10-21T00:34:35.204Z,17.64
2022-10-21T00:35:36.692Z,17.57
2022-10-21T00:36:38.155Z,17.62
2022-10-21T00:37:39.959Z,17.65
2022-10-21T00:38:42.359Z,17.64
2022-10-21T00:39:43.818Z,17.62
2022-10-21T00:40:45.283Z,17.67
2022-10-21T00:41:46.772Z,17.76
2022-10-21T00:42:48.467Z,17.78
2022-10-21T00:44:09.166Z,17.85
2022-10-21T00:45:13.482Z,17.83
2022-10-21T00:46:18.394Z,17.83
2022-10-21T00:47:20.208Z,17.81
2022-10-21T00:48:24.263Z,17.85
2022-10-21T00:49:31.864Z,17.84
2022-10-21T00:51:05.560Z,17.88
2022-10-21T00:52:08.170Z,17.92
2022-10-21T00:53:10.738Z,17.97
2022-10-21T00:54:12.197Z,17.97
2022-10-21T00:55:13.719Z,17.99
2022-10-21T00:56:16.899Z,18.02
2022-10-21T00:57:18.402Z,18.02
2022-10-21T00:58:20.942Z,18.06
2022-10-21T00:59:25.710Z,18.08
2022-10-21T01:00:27.217Z,18.13
2022-10-21T01:01:28.761Z,18.14
2022-10-21T01:02:30.251Z,18.17
2022-10-21T01:03:31.859Z,18.18
2022-10-21T01:04:33.309Z,18.18
2022-10-21T01:05:36.372Z,18.21
2022-10-21T01:06:37.953Z,18.17
2022-10-21T01:07:41.194Z,18.18
2022-10-21T01:08:43.004Z,18.24
2022-10-21T01:09:44.502Z,18.27
2022-10-21T01:10:45.987Z,18.32
2022-10-21T01:11:47.633Z,18.35
2022-10-21T01:12:53.094Z,18.32
2022-10-21T01:14:01.083Z,18.35
2022-10-21T01:15:14.331Z,18.37
2022-10-21T01:16:18.359Z,18.32
2022-10-21T01:17:43.705Z,18.33
2022-10-21T01:18:46.166Z,18.31
2022-10-21T01:19:50.563Z,18.25
2022-10-21T01:20:58.028Z,18.25
2022-10-21T01:22:04.213Z,18.19
2022-10-21T01:23:31.886Z,18.11
2022-10-21T01:24:51.840Z,18.05
2022-10-21T01:25:53.321Z,18.08
2022-10-21T01:26:59.890Z,18.05
2022-10-21T01:28:05.814Z,18.05
2022-10-21T01:29:16.048Z,18.01
2022-10-21T01:30:38.053Z,17.97
2022-10-21T01:31:43.007Z,17.93
2022-10-21T01:33:03.366Z,17.83
2022-10-21T01:34:07.874Z,17.80
2022-10-21T01:35:32.587Z,17.84
2022-10-21T01:36:41.659Z,17.74
2022-10-21T01:37:45.122Z,17.80
2022-10-21T01:39:03.386Z,17.74
2022-10-21T01:40:09.062Z,17.78
2022-10-21T01:41:13.187Z,17.84
2022-10-21T01:42:20.503Z,17.83
2022-10-21T01:43:24.530Z,17.90
2022-10-21T01:44:27.838Z,17.90
2022-10-21T01:45:29.278Z,17.92
2022-10-21T01:46:31.678Z,17.98
2022-10-21T01:47:33.916Z,17.99
2022-10-21T01:48:36.378Z,17.98
2022-10-21T01:49:42.291Z,17.95
2022-10-21T01:50:59.574Z,17.92
2022-10-21T01:52:03.608Z,17.84
2022-10-21T01:53:06.487Z,17.85
2022-10-21T01:54:09.585Z,17.85
2022-10-21T01:55:12.602Z,17.89
2022-10-21T01:56:14.128Z,17.89
2022-10-21T01:57:16.013Z,17.85
2022-10-21T01:58:21.820Z,17.85
2022-10-21T01:59:23.271Z,17.79
2022-10-21T02:01:32.639Z,17.88
2022-10-21T02:02:36.188Z,17.91
2022-10-21T02:03:38.762Z,17.88
2022-10-21T02:04:41.083Z,17.85
2022-10-21T02:05:42.525Z,17.82
2022-10-21T02:06:44.007Z,17.75
2022-10-21T02:07:45.607Z,17.69
2022-10-21T02:08:47.199Z,17.74
2022-10-21T02:09:48.750Z,17.77
2022-10-21T02:10:51.597Z,17.83
2022-10-21T02:11:53.990Z,17.81
2022-10-21T02:12:56.334Z,17.84
2022-10-21T02:13:59.103Z,17.90
2022-10-21T02:15:00.609Z,17.91
2022-10-21T02:16:02.659Z,17.91
2022-10-21T02:17:04.168Z,17.80
2022-10-21T02:18:07.325Z,17.78
2022-10-21T02:19:13.727Z,17.81
2022-10-21T02:20:15.184Z,17.82
2022-10-21T02:21:18.969Z,17.83
2022-10-21T02:22:20.724Z,17.83
2022-10-21T02:23:23.619Z,17.74
2022-10-21T02:24:36.710Z,17.61
2022-10-21T02:25:38.636Z,17.64
2022-10-21T02:26:40.087Z,17.65
2022-10-21T02:27:41.567Z,17.70
2022-10-21T02:28:43.184Z,17.69
2022-10-21T02:29:44.671Z,17.70
2022-10-21T02:30:50.091Z,17.68
2022-10-21T02:32:20.757Z,17.66
2022-10-21T02:33:42.502Z,17.65
2022-10-21T02:35:20.450Z,17.64
2022-10-21T02:36:29.041Z,17.60
2022-10-21T02:37:49.297Z,17.51
2022-10-21T02:38:52.375Z,17.56
2022-10-21T02:39:57.271Z,17.56
2022-10-21T02:41:01.890Z,17.57
2022-10-21T02:42:04.355Z,17.60
2022-10-21T02:43:07.150Z,17.58
2022-10-21T02:44:08.638Z,17.61
2022-10-21T02:45:10.578Z,17.64
2022-10-21T02:46:12.356Z,17.62
2022-10-21T02:47:15.305Z,17.61
2022-10-21T02:48:16.843Z,17.63
2022-10-21T02:49:18.315Z,17.67
2022-10-21T02:50:19.944Z,17.69
2022-10-21T02:51:21.378Z,17.65
2022-10-21T02:52:22.891Z,17.68
2022-10-21T02:53:24.336Z,17.64
2022-10-21T02:54:25.810Z,17.64
2022-10-21T02:55:27.286Z,17.67
2022-10-21T02:57:31.226Z,17.52
2022-10-21T02:58:32.664Z,17.49
2022-10-21T02:59:34.135Z,17.52
2022-10-21T03:00:35.631Z,17.56
2022-10-21T03:01:37.082Z,17.60
2022-10-21T03:02:38.651Z,17.61
2022-10-21T03:03:40.142Z,17.59
2022-10-21T03:04:41.638Z,17.62
2022-10-21T03:05:43.179Z,17.63
2022-10-21T03:06:44.658Z,17.65
2022-10-21T03:07:46.184Z,17.66
2022-10-21T03:08:47.720Z,17.68
2022-10-21T03:09:49.287Z,17.70
2022-10-21T03:10:53.134Z,17.72
2022-10-21T03:11:55.193Z,17.75
2022-10-21T03:12:56.655Z,17.76
2022-10-21T03:13:58.129Z,17.68
2022-10-21T03:14:59.611Z,17.68
2022-10-21T03:16:01.147Z,17.72
2022-10-21T03:17:02.683Z,17.75
2022-10-21T03:18:04.150Z,17.77
2022-10-21T03:19:05.690Z,17.74
2022-10-21T03:20:07.435Z,17.78
2022-10-21T03:21:08.917Z,17.72
2022-10-21T03:22:10.449Z,17.69
2022-10-21T03:23:11.907Z,17.65
2022-10-21T03:24:24.973Z,17.69
2022-10-21T03:25:34.284Z,17.64
2022-10-21T03:26:36.865Z,17.62
2022-10-21T03:27:38.350Z,17.64
2022-10-21T03:28:39.878Z,17.64
2022-10-21T03:29:41.328Z,17.63
2022-10-21T03:30:42.851Z,17.55
2022-10-21T03:31:44.371Z,17.58
2022-10-21T03:32:45.828Z,17.56
2022-10-21T03:33:47.397Z,17.56
2022-10-21T03:34:48.856Z,17.56
2022-10-21T03:35:50.373Z,17.60
2022-10-21T03:36:51.885Z,17.59
2022-10-21T03:37:53.471Z,17.65
2022-10-21T03:38:54.991Z,17.68
2022-10-21T03:39:56.522Z,17.73
2022-10-21T03:40:58.039Z,17.75
2022-10-21T03:41:59.498Z,17.77
2022-10-21T03:43:01.031Z,17.73
2022-10-21T03:44:02.501Z,17.63
2022-10-21T03:45:04.100Z,17.67
2022-10-21T03:46:05.608Z,17.55
2022-10-21T03:47:07.164Z,17.60
2022-10-21T03:48:08.708Z,17.61
2022-10-21T03:49:17.081Z,17.55
2022-10-21T03:50:26.091Z,17.58
2022-10-21T03:51:28.189Z,17.62
2022-10-21T03:52:29.765Z,17.67
2022-10-21T03:53:42.933Z,17.71
2022-10-21T03:54:44.987Z,17.66
2022-10-21T03:55:46.516Z,17.69
2022-10-21T03:56:48.045Z,17.68
2022-10-21T03:57:49.647Z,17.72
2022-10-21T03:58:54.014Z,17.78
2022-10-21T03:59:59.251Z,17.77
2022-10-21T04:01:00.835Z,17.80
2022-10-21T04:02:02.410Z,17.84
2022-10-21T04:03:04.002Z,17.85
2022-10-21T04:04:05.455Z,17.82
2022-10-21T04:05:07.294Z,17.83
2022-10-21T04:06:08.780Z,17.87
2022-10-21T04:07:10.282Z,17.90
2022-10-21T04:08:11.818Z,17.89
2022-10-21T04:09:13.321Z,17.90
2022-10-21T04:10:14.844Z,17.85
2022-10-21T04:11:16.369Z,17.85
2022-10-21T04:12:17.832Z,17.84
2022-10-21T04:13:19.354Z,17.82
2022-10-21T04:14:20.913Z,17.81
2022-10-21T04:15:22.372Z,17.84
2022-10-21T04:16:23.888Z,17.86
2022-10-21T04:17:25.452Z,17.84
2022-10-21T04:18:26.958Z,17.87
2022-10-21T04:19:28.472Z,17.83
2022-10-21T04:20:29.964Z,17.79
2022-10-21T04:21:31.462Z,17.80
2022-10-21T04:22:32.998Z,17.77
2022-10-21T04:23:34.729Z,17.76
2022-10-21T04:24:36.222Z,17.72
2022-10-21T04:25:37.714Z,17.70
2022-10-21T04:26:39.283Z,17.74
2022-10-21T04:27:40.762Z,17.74
2022-10-21T04:28:42.246Z,17.78
2022-10-21T04:29:43.742Z,17.81
2022-10-21T04:30:45.259Z,17.74
2022-10-21T04:31:46.766Z,17.82
2022-10-21T04:32:50.702Z,17.86
2022-10-21T04:33:52.366Z,17.90
2022-10-21T04:34:54.148Z,17.94
2022-10-21T04:35:55.725Z,17.98
2022-10-21T04:37:01.013Z,18.00
2022-10-21T04:38:05.638Z,18.02
2022-10-21T04:39:07.201Z,18.04
2022-10-21T04:40:09.076Z,18.02
2022-10-21T04:41:10.560Z,17.99
2022-10-21T04:42:12.159Z,17.99
2022-10-21T04:43:13.673Z,17.91
2022-10-21T04:44:15.191Z,17.87
2022-10-21T04:45:17.177Z,17.91
2022-10-21T04:46:20.796Z,17.82
2022-10-21T04:47:22.267Z,17.78
2022-10-21T04:48:23.785Z,17.80
2022-10-21T04:49:25.393Z,17.80
2022-10-21T04:50:26.930Z,17.80
2022-10-21T04:51:28.496Z,17.78
2022-10-21T04:52:30.100Z,17.81
2022-10-21T04:53:31.587Z,17.84
2022-10-21T04:54:33.146Z,17.83
2022-10-21T04:55:34.646Z,17.84
2022-10-21T04:56:36.110Z,17.86
2022-10-21T04:57:37.641Z,17.85
2022-10-21T04:58:39.104Z,17.86
2022-10-21T04:59:40.625Z,17.85
2022-10-21T05:00:42.124Z,17.83
2022-10-21T05:01:43.593Z,17.85
2022-10-21T05:02:45.102Z,17.88
2022-10-21T05:03:46.578Z,17.93
2022-10-21T05:04:48.112Z,17.89
2022-10-21T05:05:50.434Z,17.91
2022-10-21T05:06:51.908Z,17.93
2022-10-21T05:07:53.452Z,17.89
2022-10-21T05:08:54.955Z,17.84
2022-10-21T05:09:56.547Z,17.84
2022-10-21T05:10:59.210Z,17.79
2022-10-21T05:12:00.868Z,17.83
2022-10-21T05:13:02.346Z,17.84
2022-10-21T05:14:03.852Z,17.87
2022-10-21T05:15:05.507Z,17.87
2022-10-21T05:16:07.116Z,17.84
2022-10-21T05:17:08.568Z,17.79
2022-10-21T05:18:10.076Z,17.79
2022-10-21T05:19:11.821Z,17.72
2022-10-21T05:20:13.331Z,17.74
2022-10-21T05:21:14.984Z,17.77
2022-10-21T05:22:16.435Z,17.73
2022-10-21T05:23:18.004Z,17.74
2022-10-21T05:24:19.523Z,17.71
2022-10-21T05:25:21.377Z,17.61
2022-10-21T05:26:24.267Z,17.57
2022-10-21T05:27:25.775Z,17.56
2022-10-21T05:28:27.239Z,17.56
2022-10-21T05:29:28.717Z,17.58
2022-10-21T05:30:30.404Z,17.48
2022-10-21T05:31:31.876Z,17.52
2022-10-21T05:32:33.322Z,17.57
2022-10-21T05:33:34.827Z,17.60
2022-10-21T05:34:36.263Z,17.65
2022-10-21T05:35:37.807Z,17.70
2022-10-21T05:36:39.263Z,17.71
2022-10-21T05:37:40.749Z,17.76
2022-10-21T05:38:42.207Z,17.80
2022-10-21T05:39:43.699Z,17.84
2022-10-21T05:40:45.343Z,17.87
2022-10-21T05:41:48.075Z,17.88
2022-10-21T05:42:49.805Z,17.87
2022-10-21T05:43:51.305Z,17.92
2022-10-21T05:44:52.777Z,17.93
2022-10-21T05:45:54.268Z,17.93
2022-10-21T05:46:55.736Z,17.94
2022-10-21T05:47:57.263Z,17.98
2022-10-21T05:48:58.817Z,17.97
2022-10-21T05:50:00.272Z,17.99
2022-10-21T05:51:01.809Z,18.03
2022-10-21T05:52:03.297Z,18.06
2022-10-21T05:53:04.844Z,18.07
2022-10-21T05:54:06.438Z,18.09
2022-10-21T05:55:08.276Z,18.10
2022-10-21T05:56:10.476Z,18.14
2022-10-21T05:57:11.960Z,18.12
2022-10-21T05:58:13.490Z,18.12
2022-10-21T05:59:14.998Z,18.11
2022-10-21T06:00:16.498Z,18.11
2022-10-21T06:01:18.292Z,18.12
2022-10-21T06:02:19.819Z,18.11
2022-10-21T06:03:22.460Z,18.11
2022-10-21T06:04:24.004Z,18.08
2022-10-21T06:05:25.512Z,18.09
2022-10-21T06:06:26.964Z,18.11
2022-10-21T06:07:28.416Z,18.11
2022-10-21T06:08:30.443Z,18.14
2022-10-21T06:09:32.013Z,18.15
2022-10-21T06:10:33.450Z,18.18
2022-10-21T06:11:34.917Z,18.21
2022-10-21T06:12:36.373Z,18.21
2022-10-21T06:13:38.003Z,18.23
2022-10-21T06:14:39.512Z,18.24
2022-10-21T06:15:41.027Z,18.24
2022-10-21T06:16:42.515Z,18.25
2022-10-21T06:17:43.998Z,18.28
2022-10-21T06:18:45.476Z,18.28
2022-10-21T06:19:50.030Z,18.29
2022-10-21T06:20:52.558Z,18.31
2022-10-21T06:21:54.300Z,18.31
2022-10-21T06:22:55.765Z,18.32
2022-10-21T06:23:57.280Z,18.32
2022-10-21T06:24:58.773Z,18.34
2022-10-21T06:26:11.171Z,18.32
2022-10-21T06:27:13.776Z,18.30
2022-10-21T06:28:15.234Z,18.29
2022-10-21T06:29:17.480Z,18.30
2022-10-21T06:30:19.095Z,18.29
2022-10-21T06:31:23.340Z,18.29
2022-10-21T06:32:24.897Z,18.28
2022-10-21T06:33:27.265Z,18.29
2022-10-21T06:34:29.031Z,18.30
2022-10-21T06:35:30.540Z,18.32
2022-10-21T06:36:32.083Z,18.33
2022-10-21T06:37:33.646Z,18.34
2022-10-21T06:38:36.973Z,18.34
2022-10-21T06:39:38.479Z,18.34
2022-10-21T06:40:39.998Z,18.25
2022-10-21T06:41:41.472Z,18.35
2022-10-21T06:42:42.944Z,18.33
2022-10-21T06:43:44.472Z,18.33
2022-10-21T06:44:46.030Z,18.27
2022-10-21T06:45:47.548Z,18.28
2022-10-21T06:46:49.168Z,18.30
2022-10-21T06:47:50.673Z,18.31
2022-10-21T06:48:52.346Z,18.32
2022-10-21T06:49:53.867Z,18.30
2022-10-21T06:50:58.961Z,18.29
2022-10-21T06:52:00.539Z,18.29
2022-10-21T06:53:03.470Z,18.28
2022-10-21T06:54:07.524Z,18.29
2022-10-21T06:55:09.181Z,18.22
2022-10-21T06:56:11.589Z,18.23
2022-10-21T06:57:13.327Z,18.26
2022-10-21T06:58:14.916Z,18.23
2022-10-21T06:59:16.784Z,18.25
2022-10-21T07:00:18.543Z,18.27
2022-10-21T07:01:33.428Z,18.28
2022-10-21T07:02:37.004Z,18.27
2022-10-21T07:03:38.640Z,18.29
2022-10-21T07:04:44.472Z,18.29
2022-10-21T07:05:46.047Z,18.29
2022-10-21T07:06:49.073Z,18.29
2022-10-21T07:07:50.571Z,18.30
2022-10-21T07:08:59.580Z,18.28
2022-10-21T07:10:01.277Z,18.29
2022-10-21T07:11:02.820Z,18.29
2022-10-21T07:12:04.879Z,18.29
2022-10-21T07:13:06.482Z,18.29
2022-10-21T07:14:08.040Z,18.24
2022-10-21T07:15:09.899Z,18.25
2022-10-21T07:16:16.007Z,18.23
2022-10-21T07:17:17.654Z,18.24
2022-10-21T07:18:19.232Z,18.24
2022-10-21T07:19:20.769Z,18.25
2022-10-21T07:20:22.441Z,18.24
2022-10-21T07:21:25.054Z,18.18
2022-10-21T07:22:26.679Z,18.13
2022-10-21T07:23:28.203Z,18.14
2022-10-21T07:24:29.706Z,18.14
2022-10-21T07:25:31.199Z,18.16
2022-10-21T07:26:32.892Z,18.11
2022-10-21T07:27:34.492Z,18.11
2022-10-21T07:28:36.056Z,18.12
2022-10-21T07:29:37.773Z,18.09
2022-10-21T07:30:42.845Z,18.05
2022-10-21T07:31:44.454Z,18.07
2022-10-21T07:32:45.938Z,18.07
2022-10-21T07:33:47.571Z,18.08
2022-10-21T07:34:49.133Z,18.10
2022-10-21T07:35:50.764Z,18.10
2022-10-21T07:36:52.967Z,18.06
2022-10-21T07:37:54.500Z,18.09
2022-10-21T07:38:57.289Z,18.08
2022-10-21T07:39:58.913Z,18.10
2022-10-21T07:41:00.464Z,18.11
2022-10-21T07:42:02.405Z,18.10
2022-10-21T07:43:03.913Z,18.11
2022-10-21T07:44:05.833Z,18.09
2022-10-21T07:45:07.531Z,18.11
2022-10-21T07:46:09.059Z,18.14
2022-10-21T07:47:10.600Z,18.15
2022-10-21T07:48:12.227Z,18.15
2022-10-21T07:49:14.098Z,18.15
2022-10-21T07:50:16.218Z,18.16
2022-10-21T07:51:18.725Z,18.18
2022-10-21T07:52:20.233Z,18.20
2022-10-21T07:53:25.852Z,18.21
2022-10-21T07:54:27.357Z,18.22
2022-10-21T07:55:28.926Z,18.24
2022-10-21T07:56:34.653Z,18.24
2022-10-21T07:57:36.452Z,18.25
2022-10-21T07:58:37.960Z,18.24
2022-10-21T07:59:39.491Z,18.25
2022-10-21T08:00:42.957Z,18.27
2022-10-21T08:01:45.808Z,18.25
2022-10-21T08:02:47.567Z,18.27
2022-10-21T08:03:49.090Z,18.28
2022-10-21T08:04:52.165Z,18.28
2022-10-21T08:05:53.674Z,18.29
2022-10-21T08:06:55.588Z,18.30
2022-10-21T08:07:58.864Z,18.31
2022-10-21T08:09:00.592Z,18.33
2022-10-21T08:10:08.719Z,18.33
2022-10-21T08:11:10.852Z,18.33
2022-10-21T08:12:14.513Z,18.34
2022-10-21T08:13:17.020Z,18.35
2022-10-21T08:14:18.565Z,18.35
2022-10-21T08:15:20.079Z,18.35
2022-10-21T08:16:21.637Z,18.35
2022-10-21T08:17:23.259Z,18.37
2022-10-21T08:18:26.231Z,18.37
2022-10-21T08:19:29.697Z,18.30
2022-10-21T08:20:31.322Z,18.31
2022-10-21T08:21:32.825Z,18.32
2022-10-21T08:22:34.386Z,18.32
2022-10-21T08:23:36.083Z,18.32
2022-10-21T08:24:40.008Z,18.25
2022-10-21T08:25:47.603Z,18.21
2022-10-21T08:26:49.515Z,18.19
2022-10-21T08:27:51.107Z,18.20
2022-10-21T08:28:52.642Z,18.22
2022-10-21T08:29:54.313Z,18.22
2022-10-21T08:31:05.233Z,18.20
2022-10-21T08:32:07.019Z,18.21
2022-10-21T08:33:08.626Z,18.23
2022-10-21T08:34:10.098Z,18.25
2022-10-21T08:35:11.604Z,18.31
2022-10-21T08:36:14.353Z,18.33
2022-10-21T08:37:15.855Z,18.32
2022-10-21T08:38:17.361Z,18.29
2022-10-21T08:39:19.012Z,18.28
2022-10-21T08:40:20.649Z,18.30
2022-10-21T08:41:27.892Z,18.30
2022-10-21T08:42:29.513Z,18.28
2022-10-21T08:43:32.987Z,18.28
2022-10-21T08:44:40.635Z,18.25
2022-10-21T08:46:04.920Z,18.26
2022-10-21T08:47:45.329Z,18.22
2022-10-21T08:48:48.054Z,18.23
2022-10-21T08:50:01.266Z,18.28
2022-10-21T08:51:02.788Z,18.29
2022-10-21T08:52:09.728Z,18.28
2022-10-21T08:53:18.956Z,18.31
2022-10-21T08:54:24.682Z,18.30
2022-10-21T08:55:36.367Z,18.31
2022-10-21T08:56:37.875Z,18.34
2022-10-21T08:57:39.477Z,18.34
2022-10-21T08:58:41.119Z,18.34
2022-10-21T08:59:42.804Z,18.36
2022-10-21T09:00:44.218Z,18.36
2022-10-21T09:01:51.392Z,18.35
2022-10-21T09:03:00.672Z,18.37
2022-10-21T09:04:08.347Z,18.40
2022-10-21T09:05:22.056Z,18.39
2022-10-21T09:06:34.600Z,18.42
2022-10-21T09:07:48.418Z,18.43
2022-10-21T09:08:58.380Z,18.44
2022-10-21T09:10:01.098Z,18.43
2022-10-21T09:11:15.644Z,18.46
2022-10-21T09:12:17.237Z,18.43
2022-10-21T09:13:18.906Z,18.38
2022-10-21T09:14:26.495Z,18.38
2022-10-21T09:15:28.365Z,18.36
2022-10-21T09:16:33.647Z,18.36
2022-10-21T09:17:35.463Z,18.34
2022-10-21T09:18:40.184Z,18.31
2022-10-21T09:19:48.091Z,18.35
2022-10-21T09:21:05.473Z,18.36
2022-10-21T09:22:34.307Z,18.42
2022-10-21T09:23:45.020Z,18.45
2022-10-21T09:24:49.141Z,18.49
2022-10-21T09:25:56.606Z,18.50
2022-10-21T09:26:58.642Z,18.47
2022-10-21T09:28:02.001Z,18.48
2022-10-21T09:29:27.095Z,18.51
2022-10-21T09:30:28.671Z,18.52
2022-10-21T09:31:30.275Z,18.56
2022-10-21T09:32:33.233Z,18.58
2022-10-21T09:33:34.829Z,18.60
2022-10-21T09:34:54.821Z,18.63
2022-10-21T09:36:16.100Z,18.67
2022-10-21T09:37:25.466Z,18.68
2022-10-21T09:38:28.862Z,18.66
2022-10-21T09:39:33.264Z,18.67
2022-10-21T09:40:34.801Z,18.67
2022-10-21T09:41:37.566Z,18.67
2022-10-21T09:42:47.942Z,18.60
2022-10-21T09:43:49.959Z,18.68
2022-10-21T09:44:51.478Z,18.69
2022-10-21T09:45:53.382Z,18.64
2022-10-21T09:46:55.439Z,18.65
2022-10-21T09:48:01.556Z,18.65
2022-10-21T09:50:24.522Z,18.57
2022-10-21T09:51:29.611Z,18.57
2022-10-21T09:52:31.493Z,18.47
2022-10-21T09:53:35.760Z,18.51
2022-10-21T09:54:37.907Z,18.46
2022-10-21T09:55:39.923Z,18.49
2022-10-21T09:56:43.704Z,18.55
2022-10-21T09:57:48.420Z,18.58
2022-10-21T09:58:51.281Z,18.50
2022-10-21T09:59:59.145Z,18.64
2022-10-21T10:01:00.743Z,18.56
2022-10-21T10:02:05.878Z,18.54
2022-10-21T10:03:09.061Z,18.50
2022-10-21T10:04:22.414Z,18.51
2022-10-21T10:05:33.551Z,18.47
2022-10-21T10:06:36.122Z,18.47
2022-10-21T10:07:37.609Z,18.49
2022-10-21T10:08:46.246Z,18.56
2022-10-21T10:09:47.945Z,18.57
2022-10-21T10:10:49.446Z,18.58
2022-10-21T10:11:53.777Z,18.58
2022-10-21T10:12:55.736Z,18.63
2022-10-21T10:13:57.308Z,18.66
2022-10-21T10:14:59.752Z,18.69
2022-10-21T10:16:13.511Z,18.71
2022-10-21T10:17:25.708Z,18.66
2022-10-21T10:18:27.180Z,18.63
2022-10-21T10:19:28.802Z,18.63
2022-10-21T10:20:30.345Z,18.63
2022-10-21T10:21:31.864Z,18.63
2022-10-21T10:22:41.827Z,18.64
2022-10-21T10:23:47.369Z,18.63
2022-10-21T10:24:48.848Z,18.63
2022-10-21T10:25:50.815Z,18.58
2022-10-21T10:26:52.427Z,18.58
2022-10-21T10:27:59.355Z,18.61
2022-10-21T10:29:03.314Z,18.65
2022-10-21T10:30:06.302Z,18.69
2022-10-21T10:31:08.238Z,18.69
2022-10-21T10:32:11.545Z,18.65
2022-10-21T10:33:20.171Z,18.68
2022-10-21T10:34:22.515Z,18.68
2022-10-21T10:35:27.079Z,18.71
2022-10-21T10:36:29.890Z,18.74
2022-10-21T10:37:31.895Z,18.79
2022-10-21T10:38:36.077Z,18.81
2022-10-21T10:39:38.482Z,18.80
2022-10-21T10:40:41.972Z,18.87
2022-10-21T10:41:45.814Z,18.90
2022-10-21T10:42:47.283Z,18.93
2022-10-21T10:43:49.568Z,18.94
2022-10-21T10:44:51.867Z,18.95
2022-10-21T10:45:54.176Z,18.98
2022-10-21T10:46:56.066Z,18.96
2022-10-21T10:48:00.558Z,18.98
2022-10-21T10:49:19.058Z,19.00
2022-10-21T10:50:38.514Z,19.02
2022-10-21T10:51:42.749Z,19.06
2022-10-21T10:52:44.340Z,19.07
2022-10-21T10:53:45.816Z,19.06
2022-10-21T10:54:47.575Z,19.10
2022-10-21T10:55:55.485Z,19.10
2022-10-21T10:57:00.279Z,19.15
2022-10-21T10:58:11.498Z,19.15
2022-10-21T10:59:35.556Z,19.10
2022-10-21T11:00:38.911Z,19.08
2022-10-21T11:01:46.324Z,19.05
2022-10-21T11:02:55.168Z,19.07
2022-10-21T11:04:01.382Z,19.12
2022-10-21T11:05:11.852Z,19.14
2022-10-21T11:06:21.688Z,19.16
2022-10-21T11:07:32.199Z,19.16
2022-10-21T11:08:37.541Z,19.14
2022-10-21T11:09:39.061Z,19.13
2022-10-21T11:10:47.072Z,19.14
2022-10-21T11:11:48.737Z,19.14
2022-10-21T11:12:50.230Z,19.20
2022-10-21T11:13:52.693Z,19.20
2022-10-21T11:14:54.927Z,19.24
2022-10-21T11:16:11.434Z,19.26
2022-10-21T11:17:13.440Z,19.28
2022-10-21T11:18:25.409Z,19.30
2022-10-21T11:19:33.795Z,19.28
2022-10-21T11:20:42.881Z,19.32
2022-10-21T11:21:45.766Z,19.35
2022-10-21T11:24:12.013Z,19.38
2022-10-21T11:25:16.545Z,19.38
2022-10-21T11:26:18.055Z,19.40
2022-10-21T11:27:38.398Z,19.40
2022-10-21T11:28:44.677Z,19.45
2022-10-21T11:30:15.182Z,19.46
2022-10-21T11:31:24.453Z,19.49
2022-10-21T11:32:55.111Z,19.52
2022-10-21T11:33:56.676Z,19.56
2022-10-21T11:35:13.409Z,19.60
2022-10-21T11:36:33.402Z,19.60
2022-10-21T11:37:46.903Z,19.58
2022-10-21T11:39:11.303Z,19.62
2022-10-21T11:40:30.914Z,19.62
2022-10-21T11:41:32.449Z,19.57
2022-10-21T11:42:43.172Z,19.56
2022-10-21T11:43:53.626Z,19.59
2022-10-21T11:45:01.236Z,19.57
2022-10-21T11:46:28.936Z,19.58
2022-10-21T11:47:30.416Z,19.56
2022-10-21T11:48:58.170Z,19.61
2022-10-21T11:49:59.732Z,19.65
2022-10-21T11:51:03.785Z,19.68
2022-10-21T11:52:07.693Z,19.72
2022-10-21T11:53:28.013Z,19.79
2022-10-21T11:54:58.283Z,19.88
2022-10-21T11:56:23.327Z,19.93
2022-10-21T11:57:24.761Z,19.90
2022-10-21T11:58:41.356Z,19.99
2022-10-21T11:59:56.643Z,20.04
2022-10-21T12:01:03.848Z,20.09
2022-10-21T12:02:05.336Z,20.17
2022-10-21T12:03:13.227Z,20.19
2022-10-21T12:04:19.343Z,20.25
2022-10-21T12:05:39.235Z,20.23
2022-10-21T12:06:50.182Z,20.25
2022-10-21T12:07:51.636Z,20.32
2022-10-21T12:09:00.150Z,20.35
2022-10-21T12:10:04.339Z,20.37
2022-10-21T12:11:10.217Z,20.42
2022-10-21T12:12:15.309Z,20.49
2022-10-21T12:13:18.399Z,20.52
2022-10-21T12:14:31.651Z,20.57
2022-10-21T12:15:43.413Z,20.62
2022-10-21T12:16:44.902Z,20.51
2022-10-21T12:17:47.971Z,20.57
2022-10-21T12:19:00.195Z,20.56
2022-10-21T12:20:03.624Z,20.59
2022-10-21T12:21:05.436Z,20.61
2022-10-21T12:22:07.234Z,20.61
2022-10-21T12:23:09.542Z,20.66
2022-10-21T12:24:11.021Z,20.67
2022-10-21T12:25:12.457Z,20.66
2022-10-21T12:26:16.921Z,20.59
2022-10-21T12:27:20.029Z,20.53
2022-10-21T12:28:39.816Z,20.53
2022-10-21T12:29:53.355Z,20.56
2022-10-21T12:30:56.511Z,20.56
2022-10-21T12:32:02.681Z,20.60
2022-10-21T12:33:04.447Z,20.63
2022-10-21T12:34:05.938Z,20.64
2022-10-21T12:35:16.749Z,20.62
2022-10-21T12:36:24.385Z,20.67
2022-10-21T12:37:38.388Z,20.66
2022-10-21T12:38:53.031Z,20.67
2022-10-21T12:40:08.354Z,20.69
2022-10-21T12:41:24.784Z,20.69
2022-10-21T12:42:27.999Z,20.72
2022-10-21T12:43:29.723Z,20.73
2022-10-21T12:44:31.277Z,20.78
2022-10-21T12:45:36.096Z,20.79
2022-10-21T12:46:40.077Z,20.83
2022-10-21T12:47:44.902Z,20.87
2022-10-21T12:48:46.401Z,20.88
2022-10-21T12:49:47.947Z,20.83
2022-10-21T12:50:59.089Z,20.87
2022-10-21T12:52:03.226Z,20.89
2022-10-21T12:53:07.852Z,20.87
2022-10-21T12:54:16.188Z,20.90
2022-10-21T12:55:24.188Z,20.93
2022-10-21T12:56:30.684Z,20.98
2022-10-21T12:57:32.924Z,20.98
2022-10-21T12:58:39.319Z,21.01
2022-10-21T12:59:41.515Z,21.04
2022-10-21T13:00:50.667Z,21.09
2022-10-21T13:02:10.402Z,21.12
2022-10-21T13:03:12.057Z,21.12
2022-10-21T13:04:31.929Z,21.12
2022-10-21T13:05:36.420Z,21.15
2022-10-21T13:06:53.059Z,21.15
2022-10-21T13:08:13.363Z,21.20
2022-10-21T13:09:32.897Z,21.19
2022-10-21T13:10:34.550Z,21.21
2022-10-21T13:11:35.967Z,21.13
2022-10-21T13:12:37.696Z,21.11
2022-10-21T13:13:39.329Z,21.00
2022-10-21T13:14:59.913Z,20.97
2022-10-21T13:16:21.478Z,20.97
2022-10-21T13:17:22.967Z,20.94
2022-10-21T13:18:43.167Z,20.88
2022-10-21T13:19:44.701Z,20.81
2022-10-21T13:20:46.390Z,20.80
2022-10-21T13:21:48.311Z,20.79
2022-10-21T13:22:50.372Z,20.81
2022-10-21T13:23:52.760Z,20.87
2022-10-21T13:24:54.313Z,20.90
2022-10-21T13:26:05.603Z,20.89
2022-10-21T13:27:25.721Z,20.83
2022-10-21T13:28:27.325Z,20.83
2022-10-21T13:29:28.848Z,20.84
2022-10-21T13:30:37.150Z,20.85
2022-10-21T13:31:38.711Z,20.84
2022-10-21T13:32:40.737Z,20.76
2022-10-21T13:33:48.672Z,20.78
2022-10-21T13:35:05.235Z,20.80
2022-10-21T13:36:10.791Z,20.85
2022-10-21T13:37:14.048Z,20.90
2022-10-21T13:38:18.361Z,20.92
2022-10-21T13:39:25.002Z,20.88
2022-10-21T13:40:28.430Z,20.85
2022-10-21T13:41:30.067Z,20.88
2022-10-21T13:42:33.911Z,20.84
2022-10-21T13:43:35.336Z,20.87
2022-10-21T13:44:37.785Z,20.83
2022-10-21T13:45:49.295Z,20.81
2022-10-21T13:46:50.807Z,20.80
2022-10-21T13:48:12.527Z,20.87
2022-10-21T13:49:24.893Z,20.98
2022-10-21T13:50:28.349Z,20.98
2022-10-21T13:51:30.863Z,20.95
2022-10-21T13:52:32.375Z,20.94
2022-10-21T13:53:37.864Z,20.81
2022-10-21T13:54:39.395Z,20.77
2022-10-21T13:55:40.880Z,20.81